Time;durP1;ratioP1;P1;durP2;ratioP2;P2;SDS_P1;SDS_P2;PMS_P1;PMS_P2;Temp;Humidity;BMP_temperature;BMP_pressure;BME280_temperature;BME280_humidity;BME280_pressure;Samples;Min_cycle;Max_cycle;Signal;HPM_P1;HPM_P2
2021/12/18 00:00:59;;;;;;;26.88;14.60;;;5.90;99.90;;;;;;2097898;28;20060;-70
2021/12/18 00:02:00;;;;;;;29.80;14.57;;;5.90;99.90;;;;;;2089643;28;20124;-70
2021/12/18 00:03:01;;;;;;;26.45;14.30;;;5.90;99.90;;;;;;2080697;28;20366;-69
2021/12/18 00:04:02;;;;;;;30.38;14.48;;;5.90;99.90;;;;;;2088974;28;20094;-70
2021/12/18 00:05:03;;;;;;;29.67;14.95;;;5.90;99.90;;;;;;2097512;28;20165;-69
2021/12/18 00:06:04;;;;;;;25.13;13.63;;;5.90;99.90;;;;;;2089756;28;20436;-70
2021/12/18 00:07:05;;;;;;;25.88;14.25;;;5.80;99.90;;;;;;2096781;28;20088;-70
2021/12/18 00:08:05;;;;;;;28.88;14.30;;;5.90;99.90;;;;;;2089203;28;20150;-69
2021/12/18 00:09:08;;;;;;;29.42;14.45;;;5.90;99.90;;;;;;2097412;28;20683;-69
2021/12/18 00:10:09;;;;;;;27.08;13.80;;;5.80;99.90;;;;;;2090923;28;20045;-69
2021/12/18 00:11:11;;;;;;;27.40;13.85;;;5.80;99.90;;;;;;2096782;28;20016;-70
2021/12/18 00:12:11;;;;;;;27.77;14.55;;;5.90;99.90;;;;;;2091180;28;20033;-70
2021/12/18 00:13:13;;;;;;;25.20;13.98;;;5.80;99.90;;;;;;2096480;28;20027;-69
2021/12/18 00:14:14;;;;;;;23.65;13.77;;;5.80;99.90;;;;;;2088280;28;20055;-70
2021/12/18 00:15:20;;;;;;;27.85;13.88;;;5.80;99.90;;;;;;2091725;28;20104;-70
2021/12/18 00:16:21;;;;;;;31.63;13.68;;;5.80;99.90;;;;;;2095385;28;20037;-70
2021/12/18 00:17:21;;;;;;;22.92;13.73;;;5.80;99.90;;;;;;2091819;28;20052;-70
2021/12/18 00:18:22;;;;;;;27.13;13.93;;;5.80;99.90;;;;;;2093958;28;20025;-69
2021/12/18 00:19:26;;;;;;;25.00;12.82;;;5.80;99.90;;;;;;2092736;28;20078;-70
2021/12/18 00:20:27;;;;;;;28.17;13.57;;;5.80;99.90;;;;;;2094250;28;20044;-69
2021/12/18 00:21:28;;;;;;;26.90;13.02;;;5.80;99.90;;;;;;2092966;28;20077;-68
2021/12/18 00:22:29;;;;;;;22.67;12.73;;;5.70;99.90;;;;;;2094181;28;20037;-70
2021/12/18 00:23:30;;;;;;;23.80;12.82;;;5.70;99.90;;;;;;2093775;28;20020;-70
2021/12/18 00:24:30;;;;;;;26.20;12.98;;;5.80;99.90;;;;;;2093881;28;20055;-69
2021/12/18 00:25:32;;;;;;;23.70;13.10;;;5.70;99.90;;;;;;2093971;28;20472;-69
2021/12/18 00:26:33;;;;;;;26.73;13.07;;;5.70;99.90;;;;;;2097544;28;20039;-69
2021/12/18 00:27:34;;;;;;;23.02;12.90;;;5.70;99.90;;;;;;2098195;28;20427;-69
2021/12/18 00:28:35;;;;;;;28.40;12.90;;;5.70;99.90;;;;;;2092412;28;20056;-71
2021/12/18 00:29:35;;;;;;;30.48;12.82;;;5.70;99.90;;;;;;2094171;28;20013;-71
2021/12/18 00:30:37;;;;;;;24.52;12.90;;;5.70;99.90;;;;;;2092473;28;20020;-71
2021/12/18 00:31:38;;;;;;;26.88;13.10;;;5.70;99.90;;;;;;2093798;28;20107;-71
2021/12/18 00:32:38;;;;;;;26.05;12.65;;;5.70;99.90;;;;;;2092681;28;20095;-72
2021/12/18 00:33:39;;;;;;;27.92;12.85;;;5.70;99.90;;;;;;2094800;28;20020;-70
2021/12/18 00:34:39;;;;;;;26.02;13.18;;;5.70;99.90;;;;;;2097663;28;20043;-71
2021/12/18 00:35:40;;;;;;;27.33;13.13;;;5.70;99.90;;;;;;2098099;28;20020;-74
2021/12/18 00:36:41;;;;;;;26.73;12.32;;;5.70;99.90;;;;;;2091743;28;20795;-73
2021/12/18 00:37:41;;;;;;;25.85;12.75;;;5.70;99.90;;;;;;2094169;28;20033;-74
2021/12/18 00:38:42;;;;;;;28.92;12.52;;;5.70;99.90;;;;;;2097717;28;20024;-74
2021/12/18 00:39:54;;;;;;;24.92;12.50;;;5.80;99.90;;;;;;2098126;28;20027;-74
2021/12/18 00:41:12;;;;;;;24.02;12.10;;;5.70;99.90;;;;;;2090755;28;20079;-74
2021/12/18 00:43:35;;;;;;;24.60;12.85;;;5.70;99.90;;;;;;2093922;28;20039;-74
2021/12/18 00:44:37;;;;;;;24.27;12.77;;;5.80;99.90;;;;;;2093026;28;20025;-75
2021/12/18 00:45:37;;;;;;;27.95;13.70;;;5.80;99.90;;;;;;2094067;28;20066;-75
2021/12/18 00:46:43;;;;;;;24.17;12.90;;;5.80;99.90;;;;;;2092883;28;20029;-74
2021/12/18 00:47:46;;;;;;;23.77;12.98;;;5.80;99.90;;;;;;2094569;28;20020;-75
2021/12/18 00:48:46;;;;;;;23.88;12.95;;;5.80;99.90;;;;;;2090781;28;20033;-73
2021/12/18 00:49:47;;;;;;;25.45;13.32;;;5.80;99.90;;;;;;2095740;28;20021;-73
2021/12/18 00:50:48;;;;;;;25.08;13.40;;;5.80;99.90;;;;;;2091022;28;20467;-74
2021/12/18 00:51:49;;;;;;;30.55;13.30;;;5.80;99.90;;;;;;2095582;28;20016;-73
2021/12/18 00:52:50;;;;;;;26.52;14.00;;;5.80;99.90;;;;;;2090800;28;20025;-73
2021/12/18 00:53:51;;;;;;;32.85;14.50;;;5.80;99.90;;;;;;2095624;28;20887;-74
2021/12/18 00:54:52;;;;;;;27.50;13.68;;;5.80;99.90;;;;;;2089692;28;20025;-74
2021/12/18 00:55:52;;;;;;;25.98;14.38;;;5.70;99.90;;;;;;2096239;28;20030;-74
2021/12/18 00:56:53;;;;;;;26.95;14.27;;;5.70;99.90;;;;;;2089627;28;20111;-73
2021/12/18 00:57:54;;;;;;;24.70;13.60;;;5.70;99.90;;;;;;2095454;28;20020;-74
2021/12/18 00:58:55;;;;;;;29.15;14.35;;;5.70;99.90;;;;;;2089393;28;20547;-73
2021/12/18 01:00:00;;;;;;;25.77;14.68;;;5.70;99.90;;;;;;2095809;28;20052;-73
2021/12/18 01:01:06;;;;;;;27.20;15.07;;;5.70;99.90;;;;;;2088080;28;20859;-72
2021/12/18 01:02:07;;;;;;;26.67;13.82;;;5.70;99.90;;;;;;2095939;28;20052;-74
2021/12/18 01:03:17;;;;;;;27.90;14.60;;;5.70;99.90;;;;;;2089750;28;20061;-73
2021/12/18 01:04:18;;;;;;;28.48;14.43;;;5.70;99.90;;;;;;2094767;28;20059;-74
2021/12/18 01:05:19;;;;;;;26.38;13.88;;;5.70;99.90;;;;;;2089319;28;20100;-73
2021/12/18 01:06:22;;;;;;;28.08;14.77;;;5.70;99.90;;;;;;2088982;28;20032;-74
2021/12/18 01:07:23;;;;;;;31.63;15.45;;;5.70;99.90;;;;;;2091668;28;20024;-74
2021/12/18 01:08:24;;;;;;;29.13;15.23;;;5.70;99.90;;;;;;2096448;28;20047;-74
2021/12/18 01:09:43;;;;;;;29.67;15.50;;;5.60;99.90;;;;;;2097518;28;20099;-74
2021/12/18 01:11:47;;;;;;;32.00;15.43;;;5.60;99.90;;;;;;2094833;28;20191;-74
2021/12/18 01:12:50;;;;;;;29.90;15.43;;;5.60;99.90;;;;;;2090658;28;20060;-74
2021/12/18 01:15:14;;;;;;;28.38;14.80;;;5.60;99.90;;;;;;2090550;28;20025;-73
2021/12/18 01:16:20;;;;;;;28.63;15.60;;;5.60;99.90;;;;;;2095572;28;20068;-74
2021/12/18 01:23:27;;;;;;;32.92;16.38;;;5.60;99.90;;;;;;2094280;28;20024;-74
2021/12/18 01:24:28;;;;;;;28.27;15.32;;;5.60;99.90;;;;;;2095056;28;20025;-74
2021/12/18 01:25:29;;;;;;;29.27;15.73;;;5.60;99.90;;;;;;2094204;28;20096;-74
2021/12/18 01:26:29;;;;;;;34.22;16.38;;;5.60;99.90;;;;;;2096576;28;20599;-74
2021/12/18 01:27:30;;;;;;;31.60;15.98;;;5.60;99.90;;;;;;2096974;28;20108;-74
2021/12/18 01:28:32;;;;;;;29.77;15.77;;;5.60;99.90;;;;;;2096573;28;20435;-74
2021/12/18 01:29:32;;;;;;;32.40;16.02;;;5.60;99.90;;;;;;2097582;28;20032;-74
2021/12/18 01:30:33;;;;;;;30.15;16.15;;;5.60;99.90;;;;;;2096311;28;20025;-74
2021/12/18 01:31:34;;;;;;;30.40;16.40;;;5.70;99.90;;;;;;2079844;28;20032;-73
2021/12/18 01:32:35;;;;;;;30.45;16.65;;;5.70;99.90;;;;;;2080008;28;20620;-74
2021/12/18 01:33:36;;;;;;;32.92;16.70;;;5.60;99.90;;;;;;2096759;28;20024;-74
2021/12/18 01:34:37;;;;;;;29.60;16.58;;;5.70;99.90;;;;;;2097373;28;20077;-74
2021/12/18 01:35:38;;;;;;;31.60;16.90;;;5.60;99.90;;;;;;2097487;28;20781;-74
2021/12/18 01:36:38;;;;;;;30.20;16.98;;;5.60;99.90;;;;;;2097377;28;20071;-73
2021/12/18 01:37:41;;;;;;;33.95;17.08;;;5.60;99.90;;;;;;2095979;28;20731;-74
2021/12/18 01:38:41;;;;;;;32.45;16.92;;;5.60;99.90;;;;;;2096704;28;20024;-73
2021/12/18 01:39:43;;;;;;;32.33;17.02;;;5.60;99.90;;;;;;2097561;28;20024;-73
2021/12/18 01:40:44;;;;;;;31.05;16.75;;;5.60;99.90;;;;;;2096653;28;20025;-74
2021/12/18 01:42:08;;;;;;;34.10;17.27;;;5.60;99.90;;;;;;2096325;28;20043;-73
2021/12/18 01:52:15;;;;;;;32.58;17.23;;;5.60;99.90;;;;;;2096359;28;20086;-72
2021/12/18 01:53:19;;;;;;;32.78;16.60;;;5.60;99.90;;;;;;2097385;28;20025;-71
2021/12/18 01:54:20;;;;;;;31.35;16.40;;;5.60;99.90;;;;;;2096741;28;20054;-71
2021/12/18 01:55:34;;;;;;;31.00;16.75;;;5.60;99.90;;;;;;2096717;28;20020;-72
2021/12/18 01:56:35;;;;;;;29.98;16.50;;;5.60;99.90;;;;;;2097302;28;20025;-72
2021/12/18 01:57:37;;;;;;;31.15;17.15;;;5.60;99.90;;;;;;2097323;28;20031;-71
2021/12/18 01:58:38;;;;;;;31.33;17.17;;;5.60;99.90;;;;;;2097343;28;20036;-71
2021/12/18 01:59:44;;;;;;;32.50;16.20;;;5.60;99.90;;;;;;2096629;28;20037;-72
2021/12/18 02:00:45;;;;;;;33.70;16.67;;;5.60;99.90;;;;;;2096376;28;20020;-72
2021/12/18 02:01:46;;;;;;;30.77;16.17;;;5.60;99.90;;;;;;2096163;28;20028;-71
2021/12/18 02:02:46;;;;;;;29.23;16.67;;;5.60;99.90;;;;;;2096556;28;20021;-71
2021/12/18 02:03:48;;;;;;;32.63;17.30;;;5.60;99.90;;;;;;2097145;28;20025;-71
2021/12/18 02:04:49;;;;;;;32.10;15.93;;;5.70;99.90;;;;;;2097215;28;20071;-71
2021/12/18 02:05:50;;;;;;;28.20;16.23;;;5.60;99.90;;;;;;2097020;28;20067;-71
2021/12/18 02:06:51;;;;;;;31.42;16.85;;;5.60;99.90;;;;;;2096815;28;20036;-71
2021/12/18 02:07:53;;;;;;;28.00;16.40;;;5.70;99.90;;;;;;2096546;28;20804;-71
2021/12/18 02:08:53;;;;;;;28.42;16.13;;;5.70;99.90;;;;;;2096664;28;20391;-71
2021/12/18 02:11:27;;;;;;;29.58;16.10;;;5.60;99.90;;;;;;2096953;28;20653;-71
2021/12/18 02:12:19;;;;;;;29.15;15.93;;;5.60;99.90;;;;;;2095265;28;20476;-71
2021/12/18 02:13:25;;;;;;;30.17;16.02;;;5.60;99.90;;;;;;2088198;28;20056;-71
2021/12/18 02:19:59;;;;;;;27.13;15.55;;;5.70;99.90;;;;;;2097221;28;20040;-70
2021/12/18 02:21:06;;;;;;;27.40;15.52;;;5.70;99.90;;;;;;2096529;28;20037;-70
2021/12/18 02:22:07;;;;;;;31.33;16.00;;;5.70;99.90;;;;;;2096047;28;20111;-72
2021/12/18 02:23:08;;;;;;;28.65;16.00;;;5.70;99.90;;;;;;2088288;28;20112;-71
2021/12/18 02:24:09;;;;;;;28.60;15.93;;;5.70;99.90;;;;;;2096407;28;20038;-70
2021/12/18 02:25:09;;;;;;;28.70;16.13;;;5.60;99.90;;;;;;2097021;28;20056;-71
2021/12/18 02:26:11;;;;;;;27.40;15.27;;;5.60;99.90;;;;;;2087864;28;20483;-71
2021/12/18 02:27:12;;;;;;;30.15;15.40;;;5.60;99.90;;;;;;2088066;28;20128;-71
2021/12/18 02:28:20;;;;;;;28.75;15.30;;;5.70;99.90;;;;;;2096696;28;20029;-71
2021/12/18 02:29:21;;;;;;;31.02;16.00;;;5.70;99.90;;;;;;2096629;28;20074;-71
2021/12/18 02:30:22;;;;;;;25.63;15.25;;;5.70;99.90;;;;;;2096452;28;20067;-72
2021/12/18 02:31:23;;;;;;;29.55;15.75;;;5.60;99.90;;;;;;2096483;28;20025;-71
2021/12/18 02:32:23;;;;;;;28.33;15.00;;;5.60;99.90;;;;;;2096164;28;20110;-71
2021/12/18 02:33:26;;;;;;;27.77;15.02;;;5.60;99.90;;;;;;2096039;28;20020;-71
2021/12/18 02:34:30;;;;;;;32.40;15.82;;;5.60;99.90;;;;;;2096455;28;20029;-70
2021/12/18 02:35:35;;;;;;;31.83;15.98;;;5.70;99.90;;;;;;2097037;28;20494;-71
2021/12/18 02:36:45;;;;;;;28.40;15.32;;;5.70;99.90;;;;;;2088104;28;20512;-70
2021/12/18 02:37:46;;;;;;;29.33;15.60;;;5.60;99.90;;;;;;2088669;28;20033;-71
2021/12/18 02:42:23;;;;;;;28.55;15.75;;;5.70;99.90;;;;;;2096405;28;20120;-71
2021/12/18 02:43:26;;;;;;;27.52;15.45;;;5.70;99.90;;;;;;2096459;28;20533;-71
2021/12/18 02:44:27;;;;;;;26.15;15.55;;;5.70;99.90;;;;;;2096981;28;20478;-71
2021/12/18 02:45:28;;;;;;;27.52;15.38;;;5.70;99.90;;;;;;2096841;28;20036;-71
2021/12/18 02:46:28;;;;;;;25.70;14.60;;;5.70;99.90;;;;;;2087673;28;20033;-72
2021/12/18 02:47:29;;;;;;;26.17;14.63;;;5.70;99.90;;;;;;2088012;28;20107;-71
2021/12/18 02:48:30;;;;;;;22.70;13.90;;;5.70;99.90;;;;;;2095878;28;20025;-70
2021/12/18 02:49:31;;;;;;;24.88;14.43;;;5.70;99.90;;;;;;2096941;28;20472;-71
2021/12/18 02:50:31;;;;;;;24.95;14.40;;;5.70;99.90;;;;;;2087623;28;20756;-71
2021/12/18 02:51:32;;;;;;;24.52;14.70;;;5.70;99.90;;;;;;2087796;28;20033;-71
2021/12/18 02:52:33;;;;;;;25.30;14.63;;;5.70;99.90;;;;;;2096211;28;20082;-71
2021/12/18 02:53:35;;;;;;;26.48;15.50;;;5.80;99.90;;;;;;2104543;28;20028;-71
2021/12/18 02:54:40;;;;;;;24.02;14.60;;;5.70;99.90;;;;;;2096940;28;20029;-70
2021/12/18 02:55:41;;;;;;;23.98;13.80;;;5.70;99.90;;;;;;2096200;28;20017;-70
2021/12/18 02:56:41;;;;;;;22.77;13.45;;;5.80;99.90;;;;;;2096171;28;20048;-71
2021/12/18 02:57:42;;;;;;;22.50;12.82;;;5.80;99.90;;;;;;2096422;28;20643;-71
2021/12/18 02:58:46;;;;;;;25.15;14.57;;;5.80;99.90;;;;;;2096106;28;20024;-71
2021/12/18 02:59:50;;;;;;;25.10;14.10;;;5.80;99.90;;;;;;2095978;28;20032;-71
2021/12/18 03:00:52;;;;;;;22.80;13.48;;;5.80;99.90;;;;;;2096290;28;20031;-70
2021/12/18 03:01:53;;;;;;;25.05;14.05;;;5.80;99.90;;;;;;2096753;28;20024;-72
2021/12/18 03:02:53;;;;;;;23.55;13.90;;;5.80;99.90;;;;;;2096453;28;20111;-72
2021/12/18 03:03:56;;;;;;;22.67;13.88;;;5.80;99.90;;;;;;2096196;28;20482;-72
2021/12/18 03:05:00;;;;;;;21.77;13.25;;;5.80;99.90;;;;;;2088322;28;20114;-71
2021/12/18 03:07:08;;;;;;;23.08;13.82;;;5.80;99.90;;;;;;2096113;28;20395;-71
2021/12/18 03:08:16;;;;;;;20.85;12.50;;;5.80;99.90;;;;;;2095891;28;20055;-71
2021/12/18 03:22:33;;;;;;;21.98;13.48;;;5.80;99.90;;;;;;2096218;28;20032;-71
2021/12/18 03:24:57;;;;;;;24.77;13.82;;;5.80;99.90;;;;;;2105977;28;20515;-71
2021/12/18 03:26:00;;;;;;;26.42;15.02;;;5.80;99.90;;;;;;2099358;28;20119;-72
2021/12/18 03:27:01;;;;;;;26.45;13.77;;;5.70;99.90;;;;;;2098391;28;20040;-71
2021/12/18 03:28:05;;;;;;;24.90;13.60;;;5.80;99.90;;;;;;2097536;28;20036;-71
2021/12/18 03:29:05;;;;;;;25.88;13.90;;;5.70;99.90;;;;;;2090410;28;20037;-71
2021/12/18 03:30:07;;;;;;;23.88;13.20;;;5.70;99.90;;;;;;2098006;28;20043;-71
2021/12/18 03:31:07;;;;;;;22.75;13.15;;;5.70;99.90;;;;;;2098483;28;20028;-71
2021/12/18 03:32:08;;;;;;;23.42;13.68;;;5.80;99.90;;;;;;2097598;28;20028;-71
2021/12/18 03:33:08;;;;;;;24.60;13.93;;;5.80;99.90;;;;;;2097718;28;20641;-71
2021/12/18 03:34:09;;;;;;;23.23;13.35;;;5.80;99.90;;;;;;2098229;28;20032;-71
2021/12/18 03:35:10;;;;;;;24.23;13.80;;;5.80;99.90;;;;;;2097587;28;20377;-71
2021/12/18 03:36:11;;;;;;;24.33;13.35;;;5.80;99.90;;;;;;2097739;28;20029;-72
2021/12/18 03:37:12;;;;;;;23.98;13.77;;;5.70;99.90;;;;;;2098226;28;20060;-72
2021/12/18 03:38:14;;;;;;;21.08;13.18;;;5.80;99.90;;;;;;2097855;28;20039;-72
2021/12/18 03:39:16;;;;;;;22.52;13.20;;;5.80;99.90;;;;;;2097717;28;20078;-72
2021/12/18 03:40:20;;;;;;;22.67;13.60;;;5.80;99.90;;;;;;2097573;28;20020;-73
2021/12/18 03:41:21;;;;;;;24.38;14.13;;;5.80;99.90;;;;;;2097775;28;20123;-70
2021/12/18 03:42:22;;;;;;;23.25;13.68;;;5.80;99.90;;;;;;2098035;28;20024;-71
2021/12/18 03:43:23;;;;;;;22.48;13.27;;;5.80;99.90;;;;;;2098301;28;20150;-71
2021/12/18 03:44:24;;;;;;;26.98;14.77;;;5.80;99.90;;;;;;2097685;28;20107;-71
2021/12/18 03:45:24;;;;;;;25.20;13.73;;;5.80;99.90;;;;;;2097465;28;20792;-70
2021/12/18 03:46:25;;;;;;;22.30;13.45;;;5.80;99.90;;;;;;2098039;28;20032;-70
2021/12/18 03:47:26;;;;;;;23.67;13.70;;;5.80;99.90;;;;;;2098095;28;20163;-71
2021/12/18 03:48:26;;;;;;;24.17;14.18;;;5.80;99.90;;;;;;2097771;28;20032;-70
2021/12/18 03:49:27;;;;;;;25.35;14.07;;;5.70;99.90;;;;;;2098062;28;20028;-70
2021/12/18 03:50:28;;;;;;;21.83;12.93;;;5.70;99.90;;;;;;2097474;28;20032;-70
2021/12/18 03:51:29;;;;;;;21.08;13.18;;;5.80;99.90;;;;;;2097331;28;20168;-70
2021/12/18 03:52:29;;;;;;;21.48;12.65;;;5.80;99.90;;;;;;2089436;28;20025;-70
2021/12/18 03:53:30;;;;;;;21.42;13.07;;;5.80;99.90;;;;;;2089475;28;20060;-71
2021/12/18 03:54:31;;;;;;;22.98;13.50;;;5.80;99.90;;;;;;2098839;28;20060;-70
2021/12/18 03:55:32;;;;;;;22.13;12.85;;;5.80;99.90;;;;;;2098651;28;20033;-70
2021/12/18 03:56:32;;;;;;;23.70;13.38;;;5.80;99.90;;;;;;2098289;28;20543;-71
2021/12/18 03:57:33;;;;;;;21.40;13.20;;;5.80;99.90;;;;;;2097882;28;20101;-72
2021/12/18 03:58:34;;;;;;;24.13;13.95;;;5.80;99.90;;;;;;2089854;28;20052;-72
2021/12/18 03:59:35;;;;;;;22.83;13.55;;;5.80;99.90;;;;;;2090120;28;20060;-70
2021/12/18 04:00:35;;;;;;;22.40;13.35;;;5.80;99.90;;;;;;2099440;28;20111;-71
2021/12/18 04:01:37;;;;;;;23.30;13.50;;;5.80;99.90;;;;;;2098308;28;20040;-71
2021/12/18 04:02:37;;;;;;;26.55;14.05;;;5.80;99.90;;;;;;2097996;28;20507;-71
2021/12/18 04:03:38;;;;;;;23.73;14.15;;;5.80;99.90;;;;;;2082225;28;20096;-71
2021/12/18 04:04:39;;;;;;;22.83;13.48;;;5.80;99.90;;;;;;2082199;28;20040;-70
2021/12/18 04:05:39;;;;;;;22.23;13.35;;;5.70;99.90;;;;;;2089988;28;20639;-70
2021/12/18 04:06:41;;;;;;;23.30;13.35;;;5.70;99.90;;;;;;2088996;28;20025;-71
2021/12/18 04:07:45;;;;;;;22.90;13.63;;;5.80;99.90;;;;;;2089146;28;20025;-70
2021/12/18 04:08:45;;;;;;;24.10;13.65;;;5.80;99.90;;;;;;2097682;28;20081;-70
2021/12/18 04:09:48;;;;;;;24.38;14.70;;;5.80;99.90;;;;;;2098148;28;20029;-71
2021/12/18 04:10:49;;;;;;;22.73;13.50;;;5.80;99.90;;;;;;2097612;28;20075;-71
2021/12/18 04:11:49;;;;;;;23.95;13.23;;;5.70;99.90;;;;;;2097048;28;20037;-72
2021/12/18 04:12:58;;;;;;;22.13;13.57;;;5.80;99.90;;;;;;2097537;28;20068;-71
2021/12/18 04:13:59;;;;;;;22.63;13.75;;;5.80;99.90;;;;;;2097511;28;20244;-71
2021/12/18 04:15:00;;;;;;;25.27;13.50;;;5.70;99.90;;;;;;2088991;28;20068;-70
2021/12/18 04:16:00;;;;;;;24.33;13.43;;;5.80;99.90;;;;;;2088801;28;20029;-71
2021/12/18 04:17:03;;;;;;;26.58;15.02;;;5.70;99.90;;;;;;2088770;28;20419;-71
2021/12/18 04:18:04;;;;;;;24.27;13.98;;;5.70;99.90;;;;;;2096796;28;20044;-71
2021/12/18 04:19:05;;;;;;;21.80;13.05;;;5.70;99.90;;;;;;2097160;28;20025;-70
2021/12/18 04:20:07;;;;;;;21.60;12.85;;;5.70;99.90;;;;;;2089009;28;20396;-70
2021/12/18 04:21:08;;;;;;;23.95;13.63;;;5.70;99.90;;;;;;2097317;28;20031;-70
2021/12/18 04:22:09;;;;;;;26.38;14.85;;;5.80;99.90;;;;;;2097442;28;20408;-70
2021/12/18 04:23:09;;;;;;;22.77;13.90;;;5.80;99.90;;;;;;2097790;28;20064;-70
2021/12/18 04:24:10;;;;;;;24.98;14.30;;;5.80;99.90;;;;;;2097102;28;20032;-70
2021/12/18 04:25:11;;;;;;;24.77;14.55;;;5.80;99.90;;;;;;2097173;28;20812;-71
2021/12/18 04:26:11;;;;;;;24.65;14.13;;;5.70;99.90;;;;;;2097876;28;20526;-70
2021/12/18 04:27:12;;;;;;;22.02;13.77;;;5.70;99.90;;;;;;2097672;28;20032;-71
2021/12/18 04:28:13;;;;;;;23.83;14.18;;;5.70;99.90;;;;;;2097270;28;20029;-70
2021/12/18 04:29:14;;;;;;;23.20;14.20;;;5.80;99.90;;;;;;2097982;28;20090;-71
2021/12/18 04:30:15;;;;;;;26.27;14.27;;;5.70;99.90;;;;;;2098129;28;20029;-72
2021/12/18 04:31:16;;;;;;;25.45;14.70;;;5.70;99.90;;;;;;2098386;28;20068;-72
2021/12/18 04:32:16;;;;;;;22.67;13.65;;;5.70;99.90;;;;;;2098224;28;20021;-72
2021/12/18 04:33:17;;;;;;;23.42;13.63;;;5.80;99.90;;;;;;2097865;28;20115;-72
2021/12/18 04:34:18;;;;;;;23.98;13.82;;;5.70;99.90;;;;;;2097047;28;20047;-71
2021/12/18 04:35:18;;;;;;;23.52;13.90;;;5.70;99.90;;;;;;2096407;28;20032;-72
2021/12/18 04:36:19;;;;;;;23.13;12.68;;;5.70;99.90;;;;;;2096575;28;20032;-72
2021/12/18 04:37:20;;;;;;;24.17;13.60;;;5.80;99.90;;;;;;2097073;28;20055;-71
2021/12/18 04:38:21;;;;;;;21.90;12.90;;;5.80;99.90;;;;;;2096434;28;20408;-70
2021/12/18 04:39:22;;;;;;;21.27;13.25;;;5.80;99.90;;;;;;2097149;28;20059;-71
2021/12/18 04:40:25;;;;;;;21.10;13.10;;;5.80;99.90;;;;;;2097721;28;20035;-71
2021/12/18 04:41:39;;;;;;;19.60;12.52;;;5.80;99.90;;;;;;2096747;28;20489;-71
2021/12/18 04:42:39;;;;;;;22.85;13.05;;;5.80;99.90;;;;;;2097159;28;20032;-71
2021/12/18 04:43:40;;;;;;;22.75;13.65;;;5.80;99.90;;;;;;2097133;28;20036;-71
2021/12/18 04:44:41;;;;;;;23.83;13.23;;;5.70;99.90;;;;;;2096984;28;20028;-70
2021/12/18 04:45:41;;;;;;;20.67;12.82;;;5.70;99.90;;;;;;2096709;28;20357;-70
2021/12/18 04:46:42;;;;;;;19.98;12.57;;;5.70;99.90;;;;;;2097031;28;20037;-70
2021/12/18 04:47:43;;;;;;;21.75;12.73;;;5.70;99.90;;;;;;2096992;28;20033;-70
2021/12/18 04:48:43;;;;;;;19.95;12.60;;;5.70;99.90;;;;;;2097726;28;20024;-70
2021/12/18 04:49:44;;;;;;;21.08;12.65;;;5.70;99.90;;;;;;2097467;28;20070;-71
2021/12/18 04:50:44;;;;;;;19.58;12.63;;;5.70;99.90;;;;;;2097388;28;20066;-69
2021/12/18 04:51:45;;;;;;;25.90;14.32;;;5.80;99.90;;;;;;2097281;28;20028;-70
2021/12/18 04:52:46;;;;;;;22.10;13.98;;;5.80;99.90;;;;;;2097258;28;20036;-70
2021/12/18 04:53:46;;;;;;;24.63;14.52;;;5.70;99.90;;;;;;2097074;28;20428;-70
2021/12/18 04:54:47;;;;;;;28.52;15.38;;;5.70;99.90;;;;;;2097739;28;20024;-70
2021/12/18 04:55:48;;;;;;;24.00;14.15;;;5.70;99.90;;;;;;2097028;28;20508;-71
2021/12/18 04:56:48;;;;;;;22.75;13.30;;;5.70;99.90;;;;;;2097113;28;20107;-71
2021/12/18 04:57:51;;;;;;;22.58;12.88;;;5.70;99.90;;;;;;2097274;28;20025;-70
2021/12/18 04:58:51;;;;;;;23.30;12.73;;;5.70;99.90;;;;;;2096825;28;20040;-71
2021/12/18 04:59:52;;;;;;;23.63;12.90;;;5.70;99.90;;;;;;2096844;28;20029;-70
2021/12/18 05:00:54;;;;;;;22.60;13.10;;;5.70;99.90;;;;;;2097608;28;20056;-71
2021/12/18 05:01:55;;;;;;;21.10;12.52;;;5.70;99.90;;;;;;2096748;28;20066;-71
2021/12/18 05:02:56;;;;;;;18.85;12.13;;;5.70;99.90;;;;;;2088773;28;20025;-71
2021/12/18 05:03:57;;;;;;;18.20;11.43;;;5.70;99.90;;;;;;2097108;28;20632;-70
2021/12/18 05:04:57;;;;;;;18.25;11.13;;;5.80;99.90;;;;;;2097498;28;20119;-71
2021/12/18 05:06:00;;;;;;;19.80;11.70;;;5.80;99.90;;;;;;2097609;28;20020;-71
2021/12/18 05:07:01;;;;;;;19.95;12.90;;;5.80;99.90;;;;;;2097741;28;20059;-71
2021/12/18 05:08:03;;;;;;;19.65;12.60;;;5.80;99.90;;;;;;2096636;28;20123;-71
2021/12/18 05:09:04;;;;;;;20.67;11.88;;;5.80;99.90;;;;;;2097209;28;20426;-71
2021/12/18 05:10:08;;;;;;;18.20;12.10;;;5.80;99.90;;;;;;2097478;28;20033;-71
2021/12/18 05:11:09;;;;;;;18.30;12.05;;;5.90;99.90;;;;;;2097545;28;20111;-71
2021/12/18 05:12:11;;;;;;;20.67;13.15;;;5.80;99.90;;;;;;2096976;28;20041;-71
2021/12/18 05:13:12;;;;;;;22.08;13.05;;;5.80;99.90;;;;;;2097660;28;20395;-71
2021/12/18 05:14:12;;;;;;;21.08;13.13;;;5.80;99.90;;;;;;2096908;28;20070;-71
2021/12/18 05:15:13;;;;;;;18.85;12.23;;;5.80;99.90;;;;;;2096889;28;20070;-71
2021/12/18 05:16:13;;;;;;;18.75;12.25;;;5.80;99.90;;;;;;2096760;28;20039;-71
2021/12/18 05:17:14;;;;;;;17.98;11.80;;;5.80;99.90;;;;;;2088535;28;20428;-71
2021/12/18 05:18:15;;;;;;;18.65;11.52;;;5.80;99.90;;;;;;2096527;28;20123;-71
2021/12/18 05:19:15;;;;;;;20.92;12.50;;;5.80;99.90;;;;;;2097651;28;20081;-71
2021/12/18 05:20:16;;;;;;;16.67;11.43;;;5.80;99.90;;;;;;2097672;28;20121;-71
2021/12/18 05:21:17;;;;;;;16.33;10.90;;;5.80;99.90;;;;;;2096892;28;20526;-71
2021/12/18 05:22:17;;;;;;;17.00;11.15;;;5.80;99.90;;;;;;2096307;28;20368;-71
2021/12/18 05:23:18;;;;;;;17.35;10.55;;;5.80;99.90;;;;;;2096730;28;20151;-71
2021/12/18 05:24:19;;;;;;;15.73;10.30;;;5.80;99.90;;;;;;2096490;28;20147;-71
2021/12/18 05:25:19;;;;;;;15.65;10.13;;;5.80;99.90;;;;;;2096618;28;20039;-71
2021/12/18 05:26:20;;;;;;;15.55;9.88;;;5.80;99.90;;;;;;2097132;28;20035;-71
2021/12/18 05:27:21;;;;;;;13.45;9.45;;;5.80;99.90;;;;;;2097249;28;20537;-71
2021/12/18 05:28:21;;;;;;;13.95;9.25;;;5.80;99.90;;;;;;2096744;28;20046;-71
2021/12/18 05:29:22;;;;;;;13.32;8.82;;;5.90;99.90;;;;;;2097053;28;20052;-71
2021/12/18 05:30:23;;;;;;;14.15;9.13;;;5.90;99.90;;;;;;2097137;28;20028;-71
2021/12/18 05:31:24;;;;;;;13.57;9.30;;;5.90;99.90;;;;;;2097088;28;20032;-71
2021/12/18 05:32:24;;;;;;;13.18;8.80;;;5.90;99.90;;;;;;2096942;28;20024;-71
2021/12/18 05:33:25;;;;;;;12.30;8.30;;;5.90;99.90;;;;;;2096704;28;20143;-72
2021/12/18 05:34:32;;;;;;;12.45;8.25;;;5.90;99.90;;;;;;2096609;28;20032;-71
2021/12/18 05:35:33;;;;;;;12.90;8.18;;;5.90;99.90;;;;;;2097137;28;20020;-71
2021/12/18 05:37:13;;;;;;;12.80;8.30;;;5.90;99.90;;;;;;2097191;28;20107;-71
2021/12/18 05:38:04;;;;;;;15.93;8.38;;;5.90;99.90;;;;;;2095897;28;20046;-71
2021/12/18 05:39:08;;;;;;;11.48;7.53;;;5.80;99.90;;;;;;2096901;28;20117;-71
2021/12/18 05:40:14;;;;;;;12.15;7.45;;;5.80;99.90;;;;;;2097340;28;20033;-71
2021/12/18 05:41:14;;;;;;;10.93;7.10;;;5.80;99.90;;;;;;2096730;28;20411;-71
2021/12/18 05:42:16;;;;;;;11.82;7.53;;;5.80;99.90;;;;;;2096354;28;20127;-71
2021/12/18 05:43:17;;;;;;;12.45;7.20;;;5.80;99.90;;;;;;2097129;28;20043;-71
2021/12/18 05:44:19;;;;;;;11.18;6.38;;;5.70;99.90;;;;;;2096669;28;20024;-71
2021/12/18 05:45:20;;;;;;;10.13;6.57;;;5.70;99.90;;;;;;2096537;28;20032;-71
2021/12/18 05:46:21;;;;;;;12.48;7.10;;;5.70;99.90;;;;;;2096346;28;20040;-71
2021/12/18 05:47:21;;;;;;;11.07;7.22;;;5.70;99.90;;;;;;2096546;28;20056;-72
2021/12/18 05:48:22;;;;;;;10.38;6.70;;;5.70;99.90;;;;;;2096830;28;20029;-72
2021/12/18 05:49:23;;;;;;;11.63;7.30;;;5.70;99.90;;;;;;2097337;28;20095;-72
2021/12/18 05:50:28;;;;;;;10.88;6.90;;;5.70;99.90;;;;;;2097366;28;20033;-72
2021/12/18 05:51:31;;;;;;;11.38;6.95;;;5.80;99.90;;;;;;2096394;28;20029;-72
2021/12/18 05:52:31;;;;;;;11.15;6.38;;;5.80;99.90;;;;;;2096555;28;20677;-71
2021/12/18 05:53:32;;;;;;;11.13;6.13;;;5.80;99.90;;;;;;2097125;28;20111;-71
2021/12/18 05:54:35;;;;;;;9.75;6.47;;;5.80;99.90;;;;;;2096370;28;20028;-71
2021/12/18 05:55:36;;;;;;;9.25;6.22;;;5.80;99.90;;;;;;2096391;28;20139;-71
2021/12/18 05:56:37;;;;;;;9.18;6.28;;;5.80;99.90;;;;;;2096441;28;20058;-71
2021/12/18 05:57:37;;;;;;;10.57;6.25;;;5.80;99.90;;;;;;2096704;28;20099;-72
2021/12/18 05:58:41;;;;;;;9.00;5.90;;;5.90;99.90;;;;;;2097506;28;20040;-72
2021/12/18 05:59:42;;;;;;;9.13;6.00;;;5.90;99.90;;;;;;2097651;28;20037;-71
2021/12/18 06:00:42;;;;;;;9.63;6.15;;;5.90;99.90;;;;;;2097268;28;20047;-72
2021/12/18 06:01:43;;;;;;;10.15;6.18;;;5.90;99.90;;;;;;2096849;28;20035;-72
2021/12/18 06:02:43;;;;;;;9.70;6.30;;;5.90;99.90;;;;;;2097590;28;20468;-72
2021/12/18 06:03:45;;;;;;;9.30;6.07;;;5.90;99.90;;;;;;2097863;28;20094;-72